sensor_id;sensor_type;location;lat;lon;timestamp;temperature;humidity
11280;DHT22;5696;50.928;6.960;2023-01-08T06:33:54;10.60;99.90
11280;DHT22;5696;50.928;6.960;2023-01-08T06:36:19;10.60;99.90
11280;DHT22;5696;50.928;6.960;2023-01-08T06:38:45;10.50;99.90
11280;DHT22;5696;50.928;6.960;2023-01-08T06:41:11;10.50;99.90
11280;DHT22;5696;50.928;6.960;2023-01-08T06:43:37;10.60;99.90
11280;DHT22;5696;50.928;6.960;2023-01-08T06:46:04;10.60;99.90
11280;DHT22;5696;50.928;6.960;2023-01-08T06:48:29;10.60;99.90
11280;DHT22;5696;50.928;6.960;2023-01-08T06:50:58;10.70;99.90
11280;DHT22;5696;50.928;6.960;2023-01-08T06:53:24;10.70;99.90
11280;DHT22;5696;50.928;6.960;2023-01-08T06:55:50;10.70;99.90
11280;DHT22;5696;50.928;6.960;2023-01-08T06:58:21;10.70;99.90
11280;DHT22;5696;50.928;6.960;2023-01-08T07:00:47;10.70;99.90
11280;DHT22;5696;50.928;6.960;2023-01-08T07:03:13;10.80;99.90
11280;DHT22;5696;50.928;6.960;2023-01-08T07:05:38;10.80;99.90
11280;DHT22;5696;50.928;6.960;2023-01-08T07:08:04;10.80;99.90
11280;DHT22;5696;50.928;6.960;2023-01-08T07:10:30;10.80;99.90
11280;DHT22;5696;50.928;6.960;2023-01-08T07:12:56;10.80;99.90
11280;DHT22;5696;50.928;6.960;2023-01-08T07:15:22;10.80;99.90
11280;DHT22;5696;50.928;6.960;2023-01-08T07:17:47;10.80;99.90
11280;DHT22;5696;50.928;6.960;2023-01-08T07:20:13;10.70;99.90
11280;DHT22;5696;50.928;6.960;2023-01-08T07:22:39;10.60;99.90
11280;DHT22;5696;50.928;6.960;2023-01-08T07:25:05;10.50;99.90
11280;DHT22;5696;50.928;6.960;2023-01-08T07:27:31;10.40;99.90
11280;DHT22;5696;50.928;6.960;2023-01-08T07:29:57;10.30;99.90
11280;DHT22;5696;50.928;6.960;2023-01-08T07:32:22;10.40;99.90
11280;DHT22;5696;50.928;6.960;2023-01-08T07:34:48;10.40;99.90
11280;DHT22;5696;50.928;6.960;2023-01-08T07:37:14;10.20;99.90
11280;DHT22;5696;50.928;6.960;2023-01-08T07:39:39;10.20;99.90
11280;DHT22;5696;50.928;6.960;2023-01-08T07:42:05;10.10;99.90
11280;DHT22;5696;50.928;6.960;2023-01-08T07:44:30;10.10;99.90
11280;DHT22;5696;50.928;6.960;2023-01-08T07:46:56;10.00;99.90
11280;DHT22;5696;50.928;6.960;2023-01-08T07:49:21;10.10;99.90
11280;DHT22;5696;50.928;6.960;2023-01-08T07:51:51;10.00;99.90
11280;DHT22;5696;50.928;6.960;2023-01-08T07:54:16;10.00;99.90
11280;DHT22;5696;50.928;6.960;2023-01-08T07:56:42;10.10;99.90
11280;DHT22;5696;50.928;6.960;2023-01-08T07:59:08;10.00;99.90
11280;DHT22;5696;50.928;6.960;2023-01-08T08:01:33;10.10;99.90
11280;DHT22;5696;50.928;6.960;2023-01-08T08:03:59;10.10;99.90
11280;DHT22;5696;50.928;6.960;2023-01-08T08:06:24;10.10;99.90
11280;DHT22;5696;50.928;6.960;2023-01-08T08:08:50;10.10;99.90
11280;DHT22;5696;50.928;6.960;2023-01-08T08:11:15;10.20;99.90
11280;DHT22;5696;50.928;6.960;2023-01-08T08:13:41;10.10;99.90
11280;DHT22;5696;50.928;6.960;2023-01-08T08:16:09;10.20;99.90
11280;DHT22;5696;50.928;6.960;2023-01-08T08:18:35;10.20;99.90
11280;DHT22;5696;50.928;6.960;2023-01-08T08:21:01;10.20;99.90
11280;DHT22;5696;50.928;6.960;2023-01-08T08:23:28;10.10;99.90
11280;DHT22;5696;50.928;6.960;2023-01-08T08:25:53;10.10;99.90
11280;DHT22;5696;50.928;6.960;2023-01-08T08:28:19;10.20;99.90
11280;DHT22;5696;50.928;6.960;2023-01-08T08:30:45;10.20;99.90
11280;DHT22;5696;50.928;6.960;2023-01-08T08:33:11;10.20;99.90
11280;DHT22;5696;50.928;6.960;2023-01-08T08:35:38;10.20;99.90
11280;DHT22;5696;50.928;6.960;2023-01-08T08:38:04;10.20;99.90
11280;DHT22;5696;50.928;6.960;2023-01-08T08:40:30;10.30;99.90
11280;DHT22;5696;50.928;6.960;2023-01-08T08:43:01;10.30;99.90
11280;DHT22;5696;50.928;6.960;2023-01-08T08:45:27;10.30;99.90
11280;DHT22;5696;50.928;6.960;2023-01-08T08:47:53;10.30;99.90
11280;DHT22;5696;50.928;6.960;2023-01-08T08:50:20;10.30;99.90
11280;DHT22;5696;50.928;6.960;2023-01-08T08:52:45;10.30;99.90
11280;DHT22;5696;50.928;6.960;2023-01-08T08:55:13;10.30;99.90
11280;DHT22;5696;50.928;6.960;2023-01-08T08:57:41;10.40;99.90
11280;DHT22;5696;50.928;6.960;2023-01-08T09:00:07;10.30;99.90
11280;DHT22;5696;50.928;6.960;2023-01-08T09:02:33;10.30;99.90
11280;DHT22;5696;50.928;6.960;2023-01-08T09:04:59;10.30;99.90
11280;DHT22;5696;50.928;6.960;2023-01-08T09:07:24;10.30;99.90
11280;DHT22;5696;50.928;6.960;2023-01-08T09:09:50;10.30;99.90
11280;DHT22;5696;50.928;6.960;2023-01-08T09:12:16;10.30;99.90
11280;DHT22;5696;50.928;6.960;2023-01-08T09:14:41;10.40;99.90
11280;DHT22;5696;50.928;6.960;2023-01-08T09:17:07;10.50;99.90
11280;DHT22;5696;50.928;6.960;2023-01-08T09:19:32;10.50;99.90
11280;DHT22;5696;50.928;6.960;2023-01-08T09:21:58;10.50;99.90
11280;DHT22;5696;50.928;6.960;2023-01-08T09:24:25;10.50;99.90
11280;DHT22;5696;50.928;6.960;2023-01-08T09:26:52;10.50;99.90
11280;DHT22;5696;50.928;6.960;2023-01-08T09:29:18;10.50;99.90
11280;DHT22;5696;50.928;6.960;2023-01-08T09:31:44;10.50;99.90
11280;DHT22;5696;50.928;6.960;2023-01-08T09:34:11;10.60;99.90
11280;DHT22;5696;50.928;6.960;2023-01-08T09:36:37;10.70;99.90
11280;DHT22;5696;50.928;6.960;2023-01-08T09:39:02;10.70;99.90
11280;DHT22;5696;50.928;6.960;2023-01-08T09:41:31;10.70;99.90
11280;DHT22;5696;50.928;6.960;2023-01-08T09:44:00;10.70;99.90
11280;DHT22;5696;50.928;6.960;2023-01-08T09:46:27;10.60;99.90
11280;DHT22;5696;50.928;6.960;2023-01-08T09:48:59;10.60;99.90
11280;DHT22;5696;50.928;6.960;2023-01-08T09:51:35;10.50;99.90
11280;DHT22;5696;50.928;6.960;2023-01-08T09:54:02;10.50;99.90
11280;DHT22;5696;50.928;6.960;2023-01-08T09:56:28;10.50;99.90
11280;DHT22;5696;50.928;6.960;2023-01-08T09:58:57;10.50;99.90
11280;DHT22;5696;50.928;6.960;2023-01-08T10:01:27;10.60;99.90
11280;DHT22;5696;50.928;6.960;2023-01-08T10:04:09;10.70;99.90
11280;DHT22;5696;50.928;6.960;2023-01-08T10:06:39;10.90;99.90
11280;DHT22;5696;50.928;6.960;2023-01-08T10:09:05;11.10;99.90
11280;DHT22;5696;50.928;6.960;2023-01-08T10:11:43;11.30;99.90
11280;DHT22;5696;50.928;6.960;2023-01-08T10:14:20;11.40;99.90
11280;DHT22;5696;50.928;6.960;2023-01-08T10:16:51;11.70;99.90
11280;DHT22;5696;50.928;6.960;2023-01-08T10:19:18;11.90;99.90
11280;DHT22;5696;50.928;6.960;2023-01-08T10:21:43;11.90;99.90
11280;DHT22;5696;50.928;6.960;2023-01-08T10:24:09;11.90;99.90
11280;DHT22;5696;50.928;6.960;2023-01-08T10:26:36;12.00;99.90
11280;DHT22;5696;50.928;6.960;2023-01-08T10:29:19;12.10;99.90
11280;DHT22;5696;50.928;6.960;2023-01-08T10:31:45;12.20;99.90
11280;DHT22;5696;50.928;6.960;2023-01-08T10:34:30;12.40;99.90
11280;DHT22;5696;50.928;6.960;2023-01-08T10:36:57;12.20;99.90
11280;DHT22;5696;50.928;6.960;2023-01-08T10:39:25;12.20;99.90
11280;DHT22;5696;50.928;6.960;2023-01-08T10:41:55;12.20;99.90
11280;DHT22;5696;50.928;6.960;2023-01-08T10:44:23;12.30;99.90
11280;DHT22;5696;50.928;6.960;2023-01-08T10:46:53;12.30;99.90
11280;DHT22;5696;50.928;6.960;2023-01-08T10:51:58;12.30;99.90
11280;DHT22;5696;50.928;6.960;2023-01-08T10:54:33;12.20;99.90
11280;DHT22;5696;50.928;6.960;2023-01-08T10:56:58;12.20;99.90
11280;DHT22;5696;50.928;6.960;2023-01-08T10:59:24;12.10;99.90
11280;DHT22;5696;50.928;6.960;2023-01-08T11:01:53;12.00;99.90
11280;DHT22;5696;50.928;6.960;2023-01-08T11:04:24;12.00;99.90
11280;DHT22;5696;50.928;6.960;2023-01-08T11:06:51;12.00;99.90
11280;DHT22;5696;50.928;6.960;2023-01-08T11:09:21;12.00;99.90
11280;DHT22;5696;50.928;6.960;2023-01-08T11:11:48;12.10;99.90
11280;DHT22;5696;50.928;6.960;2023-01-08T11:16:45;12.40;99.90
11280;DHT22;5696;50.928;6.960;2023-01-08T11:19:26;12.30;99.90
11280;DHT22;5696;50.928;6.960;2023-01-08T11:21:59;12.40;99.90
11280;DHT22;5696;50.928;6.960;2023-01-08T11:24:30;12.20;99.90
11280;DHT22;5696;50.928;6.960;2023-01-08T11:37:50;12.30;99.90
11280;DHT22;5696;50.928;6.960;2023-01-08T11:40:16;12.30;99.90
11280;DHT22;5696;50.928;6.960;2023-01-08T11:48:49;12.20;99.90
11280;DHT22;5696;50.928;6.960;2023-01-08T11:51:42;12.30;99.90
11280;DHT22;5696;50.928;6.960;2023-01-08T11:57:07;12.10;99.90
11280;DHT22;5696;50.928;6.960;2023-01-08T12:02:56;12.20;99.90
11280;DHT22;5696;50.928;6.960;2023-01-08T12:05:46;12.10;99.90
11280;DHT22;5696;50.928;6.960;2023-01-08T12:11:02;12.00;99.90
11280;DHT22;5696;50.928;6.960;2023-01-08T12:14:05;11.80;99.90
11280;DHT22;5696;50.928;6.960;2023-01-08T12:16:56;11.80;99.90
11280;DHT22;5696;50.928;6.960;2023-01-08T12:19:33;11.90;99.90
11280;DHT22;5696;50.928;6.960;2023-01-08T12:36:02;11.70;99.90
11280;DHT22;5696;50.928;6.960;2023-01-08T12:38:35;11.50;99.90
11280;DHT22;5696;50.928;6.960;2023-01-08T12:41:10;11.60;99.90
11280;DHT22;5696;50.928;6.960;2023-01-08T12:43:53;11.70;99.90
11280;DHT22;5696;50.928;6.960;2023-01-08T12:46:23;11.70;99.90
11280;DHT22;5696;50.928;6.960;2023-01-08T12:48:51;11.70;99.90
11280;DHT22;5696;50.928;6.960;2023-01-08T12:56:54;12.00;99.90
11280;DHT22;5696;50.928;6.960;2023-01-08T12:59:31;12.00;99.90
11280;DHT22;5696;50.928;6.960;2023-01-08T13:04:44;12.20;99.90
11280;DHT22;5696;50.928;6.960;2023-01-08T13:07:19;12.20;99.90
11280;DHT22;5696;50.928;6.960;2023-01-08T13:09:55;12.20;99.90
11280;DHT22;5696;50.928;6.960;2023-01-08T13:12:31;12.10;99.90
11280;DHT22;5696;50.928;6.960;2023-01-08T13:14:57;11.90;99.90
11280;DHT22;5696;50.928;6.960;2023-01-08T13:17:23;11.80;99.90
11280;DHT22;5696;50.928;6.960;2023-01-08T13:20:00;11.80;99.90
11280;DHT22;5696;50.928;6.960;2023-01-08T13:22:32;11.70;99.90
11280;DHT22;5696;50.928;6.960;2023-01-08T13:27:39;11.70;99.90
11280;DHT22;5696;50.928;6.960;2023-01-08T13:30:35;11.70;99.90
11280;DHT22;5696;50.928;6.960;2023-01-08T13:33:55;11.60;99.90
11280;DHT22;5696;50.928;6.960;2023-01-08T13:36:25;11.50;99.90
11280;DHT22;5696;50.928;6.960;2023-01-08T13:39:21;11.50;99.90
11280;DHT22;5696;50.928;6.960;2023-01-08T13:44:38;11.60;99.90
11280;DHT22;5696;50.928;6.960;2023-01-08T13:47:18;11.70;99.90
11280;DHT22;5696;50.928;6.960;2023-01-08T13:49:47;11.90;99.90
11280;DHT22;5696;50.928;6.960;2023-01-08T13:55:15;12.30;99.90
11280;DHT22;5696;50.928;6.960;2023-01-08T13:57:52;12.50;99.90
11280;DHT22;5696;50.928;6.960;2023-01-08T14:00:45;12.40;99.90
11280;DHT22;5696;50.928;6.960;2023-01-08T14:05:47;12.20;99.90
11280;DHT22;5696;50.928;6.960;2023-01-08T14:08:23;12.20;99.90
11280;DHT22;5696;50.928;6.960;2023-01-08T14:10:51;12.10;99.90
11280;DHT22;5696;50.928;6.960;2023-01-08T14:13:26;11.90;99.90
11280;DHT22;5696;50.928;6.960;2023-01-08T14:15:58;12.00;99.90
11280;DHT22;5696;50.928;6.960;2023-01-08T14:18:26;12.00;99.90
11280;DHT22;5696;50.928;6.960;2023-01-08T14:20:53;11.90;99.90
11280;DHT22;5696;50.928;6.960;2023-01-08T14:23:31;11.70;99.90
11280;DHT22;5696;50.928;6.960;2023-01-08T14:26:01;11.60;99.90
11280;DHT22;5696;50.928;6.960;2023-01-08T14:28:28;11.50;99.90
11280;DHT22;5696;50.928;6.960;2023-01-08T14:30:55;11.40;99.90
11280;DHT22;5696;50.928;6.960;2023-01-08T14:33:32;11.30;99.90
11280;DHT22;5696;50.928;6.960;2023-01-08T14:36:00;11.20;99.90
11280;DHT22;5696;50.928;6.960;2023-01-08T14:38:25;11.20;99.90
11280;DHT22;5696;50.928;6.960;2023-01-08T14:41:04;11.20;99.90
11280;DHT22;5696;50.928;6.960;2023-01-08T14:43:43;11.30;99.90
11280;DHT22;5696;50.928;6.960;2023-01-08T14:46:21;11.30;99.90
11280;DHT22;5696;50.928;6.960;2023-01-08T14:48:50;11.40;99.90
11280;DHT22;5696;50.928;6.960;2023-01-08T14:51:24;11.30;99.90
11280;DHT22;5696;50.928;6.960;2023-01-08T14:53:57;11.40;99.90
11280;DHT22;5696;50.928;6.960;2023-01-08T14:56:28;11.40;99.90
11280;DHT22;5696;50.928;6.960;2023-01-08T14:58:54;11.40;99.90
11280;DHT22;5696;50.928;6.960;2023-01-08T15:01:24;11.50;99.90
11280;DHT22;5696;50.928;6.960;2023-01-08T15:04:03;11.50;99.90
11280;DHT22;5696;50.928;6.960;2023-01-08T15:06:31;11.40;99.90
11280;DHT22;5696;50.928;6.960;2023-01-08T15:08:57;11.40;99.90
11280;DHT22;5696;50.928;6.960;2023-01-08T15:11:47;11.40;99.90
11280;DHT22;5696;50.928;6.960;2023-01-08T15:14:14;11.40;99.90
11280;DHT22;5696;50.928;6.960;2023-01-08T15:16:41;11.40;99.90
11280;DHT22;5696;50.928;6.960;2023-01-08T15:19:41;11.40;99.90
11280;DHT22;5696;50.928;6.960;2023-01-08T15:22:19;11.40;99.90
11280;DHT22;5696;50.928;6.960;2023-01-08T15:25:01;11.40;99.90
11280;DHT22;5696;50.928;6.960;2023-01-08T15:27:28;11.40;99.90
11280;DHT22;5696;50.928;6.960;2023-01-08T15:29:56;11.20;99.90
11280;DHT22;5696;50.928;6.960;2023-01-08T15:32:35;11.20;99.90
11280;DHT22;5696;50.928;6.960;2023-01-08T15:35:15;11.20;99.90
11280;DHT22;5696;50.928;6.960;2023-01-08T15:37:41;11.20;99.90
11280;DHT22;5696;50.928;6.960;2023-01-08T15:40:08;11.10;99.90
11280;DHT22;5696;50.928;6.960;2023-01-08T15:42:35;11.10;99.90
11280;DHT22;5696;50.928;6.960;2023-01-08T15:45:24;11.00;99.90
11280;DHT22;5696;50.928;6.960;2023-01-08T15:47:50;10.90;99.90
11280;DHT22;5696;50.928;6.960;2023-01-08T15:50:15;10.80;99.90
11280;DHT22;5696;50.928;6.960;2023-01-08T15:52:42;10.70;99.90
11280;DHT22;5696;50.928;6.960;2023-01-08T15:55:19;10.60;99.90
11280;DHT22;5696;50.928;6.960;2023-01-08T15:57:46;10.50;99.90
11280;DHT22;5696;50.928;6.960;2023-01-08T16:00:12;10.50;99.90
11280;DHT22;5696;50.928;6.960;2023-01-08T16:02:45;10.40;99.90
11280;DHT22;5696;50.928;6.960;2023-01-08T16:05:11;10.30;99.90
11280;DHT22;5696;50.928;6.960;2023-01-08T16:07:37;10.20;99.90
11280;DHT22;5696;50.928;6.960;2023-01-08T16:10:04;10.10;99.90
11280;DHT22;5696;50.928;6.960;2023-01-08T16:12:30;10.10;99.90
11280;DHT22;5696;50.928;6.960;2023-01-08T16:14:55;10.00;99.90
11280;DHT22;5696;50.928;6.960;2023-01-08T16:17:21;9.90;99.90
11280;DHT22;5696;50.928;6.960;2023-01-08T16:19:47;9.90;99.90
11280;DHT22;5696;50.928;6.960;2023-01-08T16:22:12;9.90;99.90
11280;DHT22;5696;50.928;6.960;2023-01-08T16:24:38;9.90;99.90
11280;DHT22;5696;50.928;6.960;2023-01-08T16:27:03;9.80;99.90
11280;DHT22;5696;50.928;6.960;2023-01-08T16:29:31;9.80;99.90
11280;DHT22;5696;50.928;6.960;2023-01-08T16:31:56;9.80;99.90
11280;DHT22;5696;50.928;6.960;2023-01-08T16:34:23;9.70;99.90
11280;DHT22;5696;50.928;6.960;2023-01-08T16:36:49;9.70;99.90
11280;DHT22;5696;50.928;6.960;2023-01-08T16:39:14;9.70;99.90
11280;DHT22;5696;50.928;6.960;2023-01-08T16:41:40;9.60;99.90
11280;DHT22;5696;50.928;6.960;2023-01-08T16:44:06;9.60;99.90
11280;DHT22;5696;50.928;6.960;2023-01-08T16:46:38;9.60;99.90
11280;DHT22;5696;50.928;6.960;2023-01-08T16:49:06;9.60;99.90
11280;DHT22;5696;50.928;6.960;2023-01-08T16:51:32;9.60;99.90
11280;DHT22;5696;50.928;6.960;2023-01-08T16:53:57;9.60;99.90
11280;DHT22;5696;50.928;6.960;2023-01-08T16:56:23;9.60;99.90
11280;DHT22;5696;50.928;6.960;2023-01-08T16:58:49;9.60;99.90
11280;DHT22;5696;50.928;6.960;2023-01-08T17:01:16;9.60;99.90
11280;DHT22;5696;50.928;6.960;2023-01-08T17:03:41;9.60;99.90
11280;DHT22;5696;50.928;6.960;2023-01-08T17:06:08;9.50;99.90
11280;DHT22;5696;50.928;6.960;2023-01-08T17:08:35;9.50;99.90
11280;DHT22;5696;50.928;6.960;2023-01-08T17:11:40;9.50;99.90
11280;DHT22;5696;50.928;6.960;2023-01-08T17:13:59;9.50;99.90
11280;DHT22;5696;50.928;6.960;2023-01-08T17:16:24;9.40;99.90
11280;DHT22;5696;50.928;6.960;2023-01-08T17:18:50;9.40;99.90
11280;DHT22;5696;50.928;6.960;2023-01-08T17:21:16;9.40;99.90
11280;DHT22;5696;50.928;6.960;2023-01-08T17:23:45;9.40;99.90
11280;DHT22;5696;50.928;6.960;2023-01-08T17:26:13;9.40;99.90
11280;DHT22;5696;50.928;6.960;2023-01-08T17:28:39;9.50;99.90
11280;DHT22;5696;50.928;6.960;2023-01-08T17:31:07;9.50;99.90
11280;DHT22;5696;50.928;6.960;2023-01-08T17:33:34;9.50;99.90
11280;DHT22;5696;50.928;6.960;2023-01-08T17:36:00;9.50;99.90
11280;DHT22;5696;50.928;6.960;2023-01-08T17:38:26;9.60;99.90
11280;DHT22;5696;50.928;6.960;2023-01-08T17:40:53;9.60;99.90
11280;DHT22;5696;50.928;6.960;2023-01-08T17:43:18;9.60;99.90
11280;DHT22;5696;50.928;6.960;2023-01-08T17:45:44;9.60;99.90
11280;DHT22;5696;50.928;6.960;2023-01-08T17:48:10;9.60;99.90
11280;DHT22;5696;50.928;6.960;2023-01-08T17:50:38;9.60;99.90
11280;DHT22;5696;50.928;6.960;2023-01-08T17:53:03;9.60;99.90
11280;DHT22;5696;50.928;6.960;2023-01-08T17:55:29;9.60;99.90
11280;DHT22;5696;50.928;6.960;2023-01-08T17:57:55;9.70;99.90
11280;DHT22;5696;50.928;6.960;2023-01-08T18:00:21;9.60;99.90
11280;DHT22;5696;50.928;6.960;2023-01-08T18:02:46;9.60;99.90
11280;DHT22;5696;50.928;6.960;2023-01-08T18:05:12;9.50;99.90
11280;DHT22;5696;50.928;6.960;2023-01-08T18:07:37;9.50;99.90
11280;DHT22;5696;50.928;6.960;2023-01-08T18:10:04;9.50;99.90
11280;DHT22;5696;50.928;6.960;2023-01-08T18:12:29;9.40;99.90
11280;DHT22;5696;50.928;6.960;2023-01-08T18:14:57;9.30;99.90
11280;DHT22;5696;50.928;6.960;2023-01-08T18:17:22;9.30;99.90
11280;DHT22;5696;50.928;6.960;2023-01-08T18:19:48;9.20;99.90
11280;DHT22;5696;50.928;6.960;2023-01-08T18:22:14;9.20;99.90
11280;DHT22;5696;50.928;6.960;2023-01-08T18:24:40;9.20;99.90
11280;DHT22;5696;50.928;6.960;2023-01-08T18:27:06;9.10;99.90
11280;DHT22;5696;50.928;6.960;2023-01-08T18:29:32;9.20;99.90
11280;DHT22;5696;50.928;6.960;2023-01-08T18:31:58;9.10;99.90
11280;DHT22;5696;50.928;6.960;2023-01-08T18:34:24;9.10;99.90
11280;DHT22;5696;50.928;6.960;2023-01-08T18:36:50;9.10;99.90
11280;DHT22;5696;50.928;6.960;2023-01-08T18:39:16;9.10;99.90
11280;DHT22;5696;50.928;6.960;2023-01-08T18:41:42;9.10;99.90
11280;DHT22;5696;50.928;6.960;2023-01-08T18:44:26;9.20;99.90
11280;DHT22;5696;50.928;6.960;2023-01-08T18:46:52;9.20;99.90
11280;DHT22;5696;50.928;6.960;2023-01-08T18:49:18;9.20;99.90
11280;DHT22;5696;50.928;6.960;2023-01-08T18:51:44;9.20;99.90
11280;DHT22;5696;50.928;6.960;2023-01-08T18:54:10;9.30;99.90
11280;DHT22;5696;50.928;6.960;2023-01-08T18:56:37;9.30;99.90
11280;DHT22;5696;50.928;6.960;2023-01-08T18:59:04;9.30;99.90
11280;DHT22;5696;50.928;6.960;2023-01-08T19:01:31;9.20;99.90
11280;DHT22;5696;50.928;6.960;2023-01-08T19:03:57;9.20;99.90
11280;DHT22;5696;50.928;6.960;2023-01-08T19:06:23;9.20;99.90
11280;DHT22;5696;50.928;6.960;2023-01-08T19:08:49;9.20;99.90
11280;DHT22;5696;50.928;6.960;2023-01-08T19:11:14;9.30;99.90
11280;DHT22;5696;50.928;6.960;2023-01-08T19:13:40;9.30;99.90
11280;DHT22;5696;50.928;6.960;2023-01-08T19:16:09;9.30;99.90
11280;DHT22;5696;50.928;6.960;2023-01-08T19:18:36;9.40;99.90
11280;DHT22;5696;50.928;6.960;2023-01-08T19:21:02;9.40;99.90
11280;DHT22;5696;50.928;6.960;2023-01-08T19:23:29;9.30;99.90
11280;DHT22;5696;50.928;6.960;2023-01-08T19:25:55;9.20;99.90
11280;DHT22;5696;50.928;6.960;2023-01-08T19:28:20;9.10;99.90
11280;DHT22;5696;50.928;6.960;2023-01-08T19:30:53;9.10;99.90
11280;DHT22;5696;50.928;6.960;2023-01-08T19:33:19;9.10;99.90
11280;DHT22;5696;50.928;6.960;2023-01-08T19:35:46;9.10;99.90
11280;DHT22;5696;50.928;6.960;2023-01-08T19:38:11;9.10;99.90
11280;DHT22;5696;50.928;6.960;2023-01-08T19:40:37;9.10;99.90
11280;DHT22;5696;50.928;6.960;2023-01-08T19:43:02;9.10;99.90
11280;DHT22;5696;50.928;6.960;2023-01-08T19:45:47;9.10;99.90
11280;DHT22;5696;50.928;6.960;2023-01-08T19:48:12;9.10;99.90
11280;DHT22;5696;50.928;6.960;2023-01-08T19:50:38;9.10;99.90
11280;DHT22;5696;50.928;6.960;2023-01-08T19:53:04;9.10;99.90
11280;DHT22;5696;50.928;6.960;2023-01-08T19:55:29;9.10;99.90
11280;DHT22;5696;50.928;6.960;2023-01-08T19:57:55;9.10;99.90
11280;DHT22;5696;50.928;6.960;2023-01-08T20:00:21;9.00;99.90
11280;DHT22;5696;50.928;6.960;2023-01-08T20:02:47;9.10;99.90
11280;DHT22;5696;50.928;6.960;2023-01-08T20:05:13;9.00;99.90
11280;DHT22;5696;50.928;6.960;2023-01-08T20:07:39;9.00;99.90
11280;DHT22;5696;50.928;6.960;2023-01-08T20:10:05;9.00;99.90
11280;DHT22;5696;50.928;6.960;2023-01-08T20:12:31;9.00;99.90
11280;DHT22;5696;50.928;6.960;2023-01-08T20:14:57;9.00;99.90
11280;DHT22;5696;50.928;6.960;2023-01-08T20:17:22;9.00;99.90
11280;DHT22;5696;50.928;6.960;2023-01-08T20:19:52;9.00;99.90
11280;DHT22;5696;50.928;6.960;2023-01-08T20:22:18;9.00;99.90
11280;DHT22;5696;50.928;6.960;2023-01-08T20:24:45;9.00;99.90
11280;DHT22;5696;50.928;6.960;2023-01-08T20:27:11;9.00;99.90
11280;DHT22;5696;50.928;6.960;2023-01-08T20:29:37;9.00;99.90
11280;DHT22;5696;50.928;6.960;2023-01-08T20:32:03;9.00;99.90
11280;DHT22;5696;50.928;6.960;2023-01-08T20:34:30;9.00;99.90
11280;DHT22;5696;50.928;6.960;2023-01-08T20:36:56;9.00;99.90
11280;DHT22;5696;50.928;6.960;2023-01-08T20:39:22;9.00;99.90
11280;DHT22;5696;50.928;6.960;2023-01-08T20:41:48;9.10;99.90
11280;DHT22;5696;50.928;6.960;2023-01-08T20:44:14;9.10;99.90
11280;DHT22;5696;50.928;6.960;2023-01-08T20:46:40;9.10;99.90
11280;DHT22;5696;50.928;6.960;2023-01-08T20:49:10;9.10;99.90
11280;DHT22;5696;50.928;6.960;2023-01-08T20:51:38;9.10;99.90
11280;DHT22;5696;50.928;6.960;2023-01-08T20:54:06;9.20;99.90
11280;DHT22;5696;50.928;6.960;2023-01-08T20:56:32;9.20;99.90
11280;DHT22;5696;50.928;6.960;2023-01-08T20:58:59;9.30;99.90
11280;DHT22;5696;50.928;6.960;2023-01-08T21:01:27;9.30;99.90
11280;DHT22;5696;50.928;6.960;2023-01-08T21:03:56;9.30;99.90
11280;DHT22;5696;50.928;6.960;2023-01-08T21:06:26;9.40;99.90
11280;DHT22;5696;50.928;6.960;2023-01-08T21:08:55;9.40;99.90
11280;DHT22;5696;50.928;6.960;2023-01-08T21:11:21;9.40;99.90
11280;DHT22;5696;50.928;6.960;2023-01-08T21:13:47;9.50;99.90
11280;DHT22;5696;50.928;6.960;2023-01-08T21:16:18;9.50;99.90
11280;DHT22;5696;50.928;6.960;2023-01-08T21:18:44;9.50;99.90
11280;DHT22;5696;50.928;6.960;2023-01-08T21:21:17;9.60;99.90
11280;DHT22;5696;50.928;6.960;2023-01-08T21:23:45;9.60;99.90
11280;DHT22;5696;50.928;6.960;2023-01-08T21:26:11;9.70;99.90
11280;DHT22;5696;50.928;6.960;2023-01-08T21:28:39;9.70;99.90
11280;DHT22;5696;50.928;6.960;2023-01-08T21:31:16;9.70;99.90
11280;DHT22;5696;50.928;6.960;2023-01-08T21:33:43;9.70;99.90
11280;DHT22;5696;50.928;6.960;2023-01-08T21:36:16;9.70;99.90
11280;DHT22;5696;50.928;6.960;2023-01-08T21:38:42;9.80;99.90
11280;DHT22;5696;50.928;6.960;2023-01-08T21:41:12;9.80;99.90
11280;DHT22;5696;50.928;6.960;2023-01-08T21:44:02;9.80;99.90
11280;DHT22;5696;50.928;6.960;2023-01-08T21:46:47;9.80;99.90
11280;DHT22;5696;50.928;6.960;2023-01-08T21:49:13;9.80;99.90
11280;DHT22;5696;50.928;6.960;2023-01-08T21:51:38;9.80;99.90
11280;DHT22;5696;50.928;6.960;2023-01-08T21:54:22;9.80;99.90
11280;DHT22;5696;50.928;6.960;2023-01-08T21:56:48;9.80;99.90
11280;DHT22;5696;50.928;6.960;2023-01-08T21:59:13;9.80;99.90
11280;DHT22;5696;50.928;6.960;2023-01-08T22:01:39;9.80;99.90
11280;DHT22;5696;50.928;6.960;2023-01-08T22:04:05;9.90;99.90
11280;DHT22;5696;50.928;6.960;2023-01-08T22:06:30;9.80;99.90
11280;DHT22;5696;50.928;6.960;2023-01-08T22:08:56;9.90;99.90
11280;DHT22;5696;50.928;6.960;2023-01-08T22:11:22;9.90;99.90
11280;DHT22;5696;50.928;6.960;2023-01-08T22:13:47;9.90;99.90
11280;DHT22;5696;50.928;6.960;2023-01-08T22:16:13;9.90;99.90
11280;DHT22;5696;50.928;6.960;2023-01-08T22:18:39;9.90;99.90
11280;DHT22;5696;50.928;6.960;2023-01-08T22:21:07;9.90;99.90
11280;DHT22;5696;50.928;6.960;2023-01-08T22:23:34;9.90;99.90
11280;DHT22;5696;50.928;6.960;2023-01-08T22:26:07;9.90;99.90
11280;DHT22;5696;50.928;6.960;2023-01-08T22:28:33;9.90;99.90
11280;DHT22;5696;50.928;6.960;2023-01-08T22:31:03;9.90;99.90
11280;DHT22;5696;50.928;6.960;2023-01-08T22:33:29;9.90;99.90
11280;DHT22;5696;50.928;6.960;2023-01-08T22:35:54;9.80;99.90
11280;DHT22;5696;50.928;6.960;2023-01-08T22:38:20;9.80;99.90
11280;DHT22;5696;50.928;6.960;2023-01-08T22:40:45;9.80;99.90
11280;DHT22;5696;50.928;6.960;2023-01-08T22:43:11;9.80;99.90
11280;DHT22;5696;50.928;6.960;2023-01-08T22:45:37;9.80;99.90
11280;DHT22;5696;50.928;6.960;2023-01-08T22:48:02;9.80;99.90
11280;DHT22;5696;50.928;6.960;2023-01-08T22:50:29;9.80;99.90
11280;DHT22;5696;50.928;6.960;2023-01-08T22:52:55;9.80;99.90
11280;DHT22;5696;50.928;6.960;2023-01-08T22:55:20;9.70;99.90
11280;DHT22;5696;50.928;6.960;2023-01-08T22:57:46;9.60;99.90
11280;DHT22;5696;50.928;6.960;2023-01-08T23:00:12;9.60;99.90
11280;DHT22;5696;50.928;6.960;2023-01-08T23:02:38;9.50;99.90
11280;DHT22;5696;50.928;6.960;2023-01-08T23:05:04;9.50;99.90
11280;DHT22;5696;50.928;6.960;2023-01-08T23:07:30;9.50;99.90
